Weather observations for the past three days for
Middleton Island Airport
Metric (Imperial)
Date Time (akdt) Wind (kph) Vis. (km) Weather Sky Cond. Temperature (ºC) Relative Humidity Wind Chill (°C) Heat Index (°C) Pressure Precipitation (cm)
Air Dwpt 6 hour altimeter (cm) sea level (mb) 1 hr 3 hr 6 hr
Max. Min.
06 08:56 SE 9 16.09 Light Rain BKN014 OVC065 12.2 12.2 100% 76.3 1017.2 0.03
06 07:56 SE 7 16.09 Overcast BKN007 OVC027 11.7 11.7 100% 76.33 1017.6
06 06:56 SE 9 16.09 Overcast SCT005 BKN012 OVC020 11.7 11.7 100% 76.33 1017.6 0.08
06 05:56 SE 13 6.44 Light Rain Fog/Mist SCT003 OVC009 11.7 11.7 100% 76.35 1017.8 0.03
06 04:56 SE 13 4.02 Light Rain Fog/Mist OVC003 11.7 11.7 100% 76.35 1018.1 0.05
06 03:56 E 6 2.41 Light Rain Fog/Mist OVC011 11.7 11.7 11.7 11.1 100% 76.38 1018.4
06 02:56 Calm 11.27 Overcast OVC007 11.1 11.1 100% 76.4 1018.8
06 01:56 Calm 4.02 Fog/Mist OVC005 11.7 11.7 100% 76.43 1019.0
06 00:56 Calm 6.44 Fog/Mist OVC005 11.7 11.7 100% 76.45 1019.3
05 23:56 W 9 6.44 Fog/Mist OVC005 11.7 11.7 100% 76.43 1019.1
05 22:56 W 9 9.66 Fog/Mist OVC005 11.7 11.7 100% 76.45 1019.3
05 21:56 W 11 14.48 Overcast OVC007 11.7 11.7 12.2 11.7 100% 76.45 1019.3
05 20:56 SW 11 16.09 Overcast BKN008 OVC014 11.7 11.7 100% 76.45 1019.2
05 19:53 SW 7 16.09 Overcast FEW008 OVC016 12.2 11.1 93% 76.45 1019.4
05 18:56 SW 13 16.09 Overcast OVC010 12.2 11.1 93% 76.45 1019.4
05 17:56 W 15 16.09 Overcast OVC010 12.2 11.7 97% 76.45 1019.5
05 16:56 W 17 4.83 Fog/Mist OVC003 12.2 12.2 100% 76.48 1019.5
05 15:56 SW 13 4.83 Fog/Mist OVC005 11.7 11.7 14.4 11.7 100% 76.48 1019.5
05 14:56 SW 11 4.83 Fog/Mist OVC003 12.2 12.2 100% 76.45 1019.2
05 13:56 SW 13 6.44 Fog/Mist OVC003 13.3 13.3 100% 76.45 1019.4
05 12:56 SW 13 1.61 Light Rain Fog/Mist OVC003 13.9 13.9 100% 76.48 1019.5
05 11:56 SW 20 14.48 Overcast OVC003 14.4 14.4 100% 76.45 1019.2
05 09:56 S 15 2.01 Fog/Mist OVC003 13.3 13.3 13.3 12.8 100% 76.48 1019.7
05 08:56 SW 13 6.44 Fog/Mist OVC007 12.8 12.8 100% 76.5 1019.8
05 07:56 SW 15 16.09 Overcast OVC011 12.8 12.8 100% 76.5 1019.9
05 06:56 SW 17 8.05 Fog/Mist OVC007 12.8 12.8 100% 76.5 1020.0
05 05:56 S 11 9.66 Fog/Mist OVC005 12.8 12.8 100% 76.53 1020.2
05 04:56 SW 15 6.44 Light Rain Fog/Mist OVC005 12.8 12.8 100% 76.56 1020.5
05 03:56 SW 15 0.40 Fog OVC003 12.8 12.8 13.3 12.8 100% 76.56 1020.7 0.03 0.03
05 02:56 SW 17 0.40 Light Rain Fog OVC003 13.3 13.3 100% 76.58 1021.1
05 01:56 SW 13 0.40 Light Rain Fog OVC003 12.8 12.8 100% 76.61 1021.3
05 00:56 SW 17 0.24 Light Rain Fog OVC003 12.8 12.8 100% 76.61 1021.2
04 23:56 SW 19 0.40 Light Rain Fog OVC003 13.3 13.3 100% 76.61 1021.2
04 22:56 SW 15 0.40 Light Rain Fog OVC003 13.3 13.3 100% 76.61 1021.3
04 21:56 SW 13 0.40 Light Rain Fog OVC003 13.3 13.3 13.3 12.2 100% 76.61 1021.3
04 20:56 SW 15 0.40 Light Rain Fog OVC003 13.3 13.3 100% 76.63 1021.5
04 19:56 SW 9 0.40 Light Rain Fog OVC003 13.3 13.3 100% 76.61 1021.5
04 18:56 SW 13 2.01 Light Rain Fog/Mist OVC003 12.8 12.8 100% 76.63 1021.7
04 17:56 SW 9 0.40 Fog OVC003 12.2 12.2 100% 76.66 1022.1
04 16:56 Vrbl 7 2.01 Fog/Mist OVC003 12.2 12.2 100% 76.68 1022.2
04 15:56 W 15 6.44 Fog/Mist OVC003 12.2 12.2 13.3 11.7 100% 76.68 1022.5
04 14:56 W 11 2.82 Fog/Mist OVC003 12.8 12.8 100% 76.68 1022.5
04 13:56 W 19 8.05 Fog/Mist OVC003 12.8 12.8 100% 76.71 1022.6
04 12:56 SW 17 2.41 Fog/Mist OVC003 12.8 12.8 100% 76.71 1022.7
04 11:56 SW 15 2.01 Fog/Mist OVC003 12.2 12.2 100% 76.68 1022.5
04 10:56 W 13 16.09 Overcast OVC005 12.2 11.7 97% 76.68 1022.3
04 09:56 W 13 16.09 Overcast BKN005 OVC042 11.7 11.7 12.2 11.7 100% 76.68 1022.2 0.03
04 08:56 W 11 16.09 Overcast OVC011 11.7 11.7 100% 76.66 1022.2 0.03
04 07:56 W 7 16.09 Overcast FEW002 OVC013 11.7 11.7 100% 76.66 1022.1
04 06:56 W 7 1.21 Fog/Mist OVC004 11.7 11.7 100% 76.66 1021.8
04 05:56 W 7 0.40 Fog BKN004 BKN009 OVC015 11.7 11.7 100% 76.63 1021.7
04 04:56 W 6 1.61 Fog/Mist OVC004 11.7 11.7 100% 76.63 1021.4
04 03:56 SW 7 1.21 Light Rain Fog/Mist OVC004 12.2 12.2 12.8 11.7 100% 76.61 1021.3
04 02:56 S 7 4.83 Light Rain Fog/Mist OVC008 11.7 11.7 100% 76.63 1021.5
04 01:56 S 13 16.09 Overcast OVC012 12.2 12.2 100% 76.63 1021.7
04 00:56 S 9 16.09 Overcast OVC006 12.8 12.8 100% 76.66 1021.9
03 23:56 SW 11 16.09 Mostly Cloudy BKN021 12.2 12.2 100% 76.63 1021.7
03 22:56 SW 9 16.09 Fair CLR 12.2 12.2 100% 76.63 1021.5
03 21:56 SW 9 16.09 Fair CLR 12.2 12.2 17.2 12.2 100% 76.63 1021.6
03 20:56 SW 9 16.09 Fair CLR 12.8 11.1 90% 76.63 1021.7
03 19:56 W 11 16.09 Fair CLR 13.9 12.8 93% 76.63 1021.6
03 18:56 SW 11 16.09 Fair CLR 15.6 12.8 84% 76.63 1021.4
03 17:56 W 9 16.09 Fair CLR 16.1 10 67% 76.61 1021.4
03 16:56 SW 7 16.09 Fair CLR 16.7 7.8 56% 76.63 1021.6
03 15:56 SW 7 16.09 Fair CLR 16.7 7.2 17.8 13.9 54% 76.61 1021.3
03 14:56 Vrbl 7 12.87 Fair CLR 17.2 4.4 43% 76.58 1020.9
03 13:56 Calm 16.09 Fair CLR 16.1 8.3 60% 76.61 1021.2
03 12:56 Calm 14.48 Fair CLR 15.6 8.9 65% 76.58 1020.8
03 11:56 W 7 16.09 Fair CLR 15.6 9.4 67% 76.53 1020.3
03 10:56 Calm 16.09 Fair CLR 15 8.9 67% 76.48 1019.6
03 09:56 N 6 16.09 Fair CLR 14.4 8.9 14.4 11.1 70% 76.45 1019.4
Date Time (akdt) Wind (kph) Vis. (km) Weather Sky Cond. Air Dwpt Max. Min. Relative Humidity Wind Chill (°C) Heat Index (°C) altimeter (cm) sea level (mb) 1 hr 3 hr 6 hr
6 hour
Temperature (ºC) Pressure Precipitation (cm)